createdAt,value
2023-01-01T00:00:34.466Z,74.03
2023-01-01T00:01:16.840Z,80.38
2023-01-01T00:01:58.519Z,60.63
2023-01-01T00:02:40.204Z,57.53
2023-01-01T00:03:21.943Z,72.78
2023-01-01T00:04:03.881Z,57.75
2023-01-01T00:04:47.532Z,58.30
2023-01-01T00:05:29.157Z,60.47
2023-01-01T00:06:13.518Z,72.03
2023-01-01T00:06:55.104Z,63.53
2023-01-01T00:07:36.809Z,71.32
2023-01-01T00:08:18.413Z,61.20
2023-01-01T00:09:19.190Z,68.47
2023-01-01T00:10:19.475Z,63.72
2023-01-01T00:11:05.633Z,60.08
2023-01-01T00:11:47.302Z,60.35
2023-01-01T00:12:29.032Z,62.45
2023-01-01T00:13:13.378Z,52.95
2023-01-01T00:13:55.070Z,63.53
2023-01-01T00:14:36.817Z,66.20
2023-01-01T00:15:18.470Z,64.13
2023-01-01T00:16:07.201Z,64.68
2023-01-01T00:16:48.932Z,66.25
2023-01-01T00:17:31.172Z,65.05
2023-01-01T00:18:13.328Z,65.32
2023-01-01T00:18:54.986Z,61.30
2023-01-01T00:19:36.648Z,59.15
2023-01-01T00:20:18.392Z,56.28
2023-01-01T00:21:09.644Z,58.60
2023-01-01T00:21:51.317Z,65.55
2023-01-01T00:22:54.102Z,72.55
2023-01-01T00:23:35.700Z,57.42
2023-01-01T00:24:17.386Z,74.95
2023-01-01T00:24:59.026Z,65.15
2023-01-01T00:25:41.800Z,73.53
2023-01-01T00:26:23.428Z,70.88
2023-01-01T00:27:05.071Z,67.72
2023-01-01T00:27:46.692Z,63.63
2023-01-01T00:28:28.503Z,68.82
2023-01-01T00:29:10.226Z,66.57
2023-01-01T00:29:53.049Z,72.25
2023-01-01T00:30:34.881Z,68.63
2023-01-01T00:31:19.898Z,67.47
2023-01-01T00:32:01.699Z,64.80
2023-01-01T00:32:43.457Z,65.18
2023-01-01T00:33:37.069Z,76.03
2023-01-01T00:34:18.726Z,75.75
2023-01-01T00:35:00.358Z,73.60
2023-01-01T00:35:42.011Z,66.45
2023-01-01T00:36:26.540Z,72.25
2023-01-01T00:37:08.397Z,72.55
2023-01-01T00:37:50.027Z,69.65
2023-01-01T00:38:33.413Z,68.40
2023-01-01T00:39:15.125Z,61.25
2023-01-01T00:39:56.709Z,61.92
2023-01-01T00:40:38.317Z,67.80
2023-01-01T00:41:22.018Z,60.20
2023-01-01T00:42:03.701Z,61.53
2023-01-01T00:42:45.262Z,61.63
2023-01-01T00:43:30.125Z,54.70
2023-01-01T00:44:11.758Z,59.88
2023-01-01T00:44:53.399Z,56.17
2023-01-01T00:45:35.168Z,56.97
2023-01-01T00:46:17.114Z,54.67
2023-01-01T00:46:58.742Z,55.55
2023-01-01T00:47:40.446Z,59.75
2023-01-01T00:48:22.421Z,55.88
2023-01-01T00:49:03.997Z,55.45
2023-01-01T00:49:45.695Z,59.05
2023-01-01T00:50:27.402Z,52.88
2023-01-01T00:51:09.228Z,59.80
2023-01-01T00:51:50.835Z,61.95
2023-01-01T00:52:32.475Z,57.78
2023-01-01T00:53:14.313Z,57.92
2023-01-01T00:53:56.016Z,59.40
2023-01-01T00:54:37.630Z,58.90
2023-01-01T00:55:19.222Z,55.42
2023-01-01T00:56:01.017Z,52.78
2023-01-01T00:56:45.074Z,48.75
2023-01-01T00:57:26.681Z,51.30
2023-01-01T00:58:09.185Z,49.50
2023-01-01T00:59:00.832Z,47.08
2023-01-01T00:59:43.663Z,46.38
2023-01-01T01:00:25.310Z,44.47
2023-01-01T01:01:07.129Z,46.40
2023-01-01T01:01:49.042Z,47.13
2023-01-01T01:02:30.881Z,42.30
2023-01-01T01:03:28.063Z,44.83
2023-01-01T01:04:09.848Z,45.03
2023-01-01T01:04:51.451Z,45.42
2023-01-01T01:05:33.717Z,41.70
2023-01-01T01:06:17.051Z,42.88
2023-01-01T01:06:58.965Z,40.97
2023-01-01T01:07:40.870Z,38.30
2023-01-01T01:08:28.553Z,39.75
2023-01-01T01:09:12.275Z,38.78
2023-01-01T01:09:53.870Z,38.03
2023-01-01T01:10:35.472Z,39.08
2023-01-01T01:11:22.721Z,43.35
2023-01-01T01:12:18.785Z,46.75
2023-01-01T01:13:00.983Z,44.40
2023-01-01T01:13:44.262Z,45.08
2023-01-01T01:14:25.977Z,43.83
2023-01-01T01:15:08.755Z,42.63
2023-01-01T01:15:54.600Z,41.13
2023-01-01T01:16:37.996Z,43.45
2023-01-01T01:17:19.658Z,35.95
2023-01-01T01:18:01.321Z,38.10
2023-01-01T01:18:43.497Z,34.22
2023-01-01T01:19:26.458Z,34.03
2023-01-01T01:20:08.872Z,34.88
2023-01-01T01:20:52.224Z,35.55
2023-01-01T01:21:37.583Z,33.67
2023-01-01T01:22:24.265Z,35.35
2023-01-01T01:23:09.515Z,36.38
2023-01-01T01:23:52.219Z,28.77
2023-01-01T01:24:33.967Z,33.58
2023-01-01T01:25:15.665Z,31.67
2023-01-01T01:26:10.500Z,32.38
2023-01-01T01:26:53.419Z,31.10
2023-01-01T01:27:35.038Z,30.52
2023-01-01T01:28:16.710Z,30.98
2023-01-01T01:28:58.720Z,30.50
2023-01-01T01:29:40.389Z,32.67
2023-01-01T01:30:22.032Z,31.70
2023-01-01T01:31:04.104Z,32.20
2023-01-01T01:31:45.807Z,31.58
2023-01-01T01:32:27.546Z,31.48
2023-01-01T01:33:09.273Z,31.25
2023-01-01T01:33:51.143Z,30.08
2023-01-01T01:34:32.838Z,31.23
2023-01-01T01:35:14.459Z,32.13
2023-01-01T01:35:56.102Z,28.50
2023-01-01T01:36:37.742Z,29.42
2023-01-01T01:37:19.367Z,27.42
2023-01-01T01:38:00.975Z,30.17
2023-01-01T01:38:43.367Z,30.08
2023-01-01T01:39:24.948Z,30.60
2023-01-01T01:40:07.676Z,27.50
2023-01-01T01:40:49.500Z,25.48
2023-01-01T01:41:31.144Z,26.63
2023-01-01T01:42:17.802Z,28.35
2023-01-01T01:42:59.416Z,25.70
2023-01-01T01:43:40.937Z,27.20
2023-01-01T01:44:44.213Z,26.27
2023-01-01T01:45:32.840Z,27.17
2023-01-01T01:46:21.713Z,28.27
2023-01-01T01:47:03.373Z,27.27
2023-01-01T01:47:55.636Z,26.15
2023-01-01T01:48:41.120Z,22.75
2023-01-01T01:49:32.575Z,25.60
2023-01-01T01:50:16.968Z,25.00
2023-01-01T01:50:58.607Z,26.60
2023-01-01T01:51:40.675Z,25.02
2023-01-01T01:52:22.495Z,24.90
2023-01-01T01:53:12.726Z,27.65
2023-01-01T01:53:59.688Z,25.02
2023-01-01T01:54:42.183Z,25.20
2023-01-01T01:55:26.112Z,26.30
2023-01-01T01:56:12.970Z,26.40
2023-01-01T01:57:02.456Z,26.10
2023-01-01T01:57:44.191Z,26.77
2023-01-01T01:58:27.819Z,25.85
2023-01-01T01:59:09.526Z,25.30
2023-01-01T01:59:55.177Z,24.98
2023-01-01T02:00:37.232Z,23.23
2023-01-01T02:01:18.923Z,25.42
2023-01-01T02:02:01.584Z,25.10
2023-01-01T02:03:12.463Z,25.25
2023-01-01T02:04:00.837Z,26.25
2023-01-01T02:04:42.926Z,27.30
2023-01-01T02:05:25.141Z,27.90
2023-01-01T02:06:06.896Z,25.05
2023-01-01T02:06:50.092Z,23.88
2023-01-01T02:07:33.968Z,26.55
2023-01-01T02:08:16.612Z,24.13
2023-01-01T02:09:02.217Z,26.42
2023-01-01T02:09:43.871Z,28.88
2023-01-01T02:10:27.273Z,27.23
2023-01-01T02:11:08.986Z,26.92
2023-01-01T02:11:53.614Z,22.55
2023-01-01T02:12:35.282Z,22.65
2023-01-01T02:13:20.113Z,25.17
2023-01-01T02:14:02.624Z,27.00
2023-01-01T02:14:44.361Z,29.30
2023-01-01T02:15:31.294Z,29.13
2023-01-01T02:16:19.685Z,29.83
2023-01-01T02:17:21.197Z,30.55
2023-01-01T02:18:16.019Z,26.77
2023-01-01T02:19:28.355Z,27.20
2023-01-01T02:20:31.824Z,27.85
2023-01-01T02:21:19.884Z,24.77
2023-01-01T02:22:23.499Z,25.08
2023-01-01T02:23:23.587Z,28.55
2023-01-01T02:24:26.813Z,31.23
2023-01-01T02:25:17.445Z,27.73
2023-01-01T02:26:18.330Z,29.02
2023-01-01T02:27:44.164Z,28.67
2023-01-01T02:28:52.489Z,32.45
2023-01-01T02:29:55.212Z,25.98
2023-01-01T02:30:39.088Z,29.02
2023-01-01T02:31:27.064Z,28.67
2023-01-01T02:32:10.808Z,30.45
2023-01-01T02:33:00.369Z,30.92
2023-01-01T02:33:45.071Z,28.98
2023-01-01T02:34:33.565Z,33.53
2023-01-01T02:35:35.486Z,32.30
2023-01-01T02:36:19.771Z,30.98
2023-01-01T02:37:04.256Z,27.20
2023-01-01T02:37:48.917Z,27.52
2023-01-01T02:38:35.118Z,29.98
2023-01-01T02:39:21.332Z,30.80
2023-01-01T02:40:03.803Z,29.23
2023-01-01T02:40:50.463Z,28.10
2023-01-01T02:41:38.772Z,31.80
2023-01-01T02:42:24.479Z,27.90
2023-01-01T02:43:06.887Z,25.70
2023-01-01T02:43:48.590Z,26.33
2023-01-01T02:44:34.573Z,27.80
2023-01-01T02:45:16.361Z,27.80
2023-01-01T02:45:58.135Z,26.52
2023-01-01T02:46:39.894Z,25.20
2023-01-01T02:47:21.575Z,26.08
2023-01-01T02:48:27.604Z,26.38
2023-01-01T02:49:10.992Z,23.90
2023-01-01T02:50:03.836Z,20.50
2023-01-01T02:50:46.351Z,22.60
2023-01-01T02:51:55.082Z,21.10
2023-01-01T02:53:06.295Z,24.60
2023-01-01T02:54:08.930Z,22.33
2023-01-01T02:55:01.895Z,24.92
2023-01-01T02:56:04.751Z,23.05
2023-01-01T02:56:55.732Z,23.30
2023-01-01T02:57:46.262Z,23.15
2023-01-01T02:58:58.045Z,23.75
2023-01-01T03:00:19.267Z,22.60
2023-01-01T03:01:13.809Z,23.67
2023-01-01T03:02:17.294Z,22.98
2023-01-01T03:03:27.633Z,23.73
2023-01-01T03:04:25.254Z,20.10
2023-01-01T03:05:35.840Z,19.23
2023-01-01T03:06:27.843Z,20.48
2023-01-01T03:07:29.171Z,21.75
2023-01-01T03:08:15.831Z,21.08
2023-01-01T03:09:11.326Z,23.05
2023-01-01T03:10:04.939Z,20.58
2023-01-01T03:11:11.903Z,21.23
2023-01-01T03:12:14.797Z,19.50
2023-01-01T03:13:10.445Z,18.73
2023-01-01T03:13:58.936Z,19.20
2023-01-01T03:14:46.429Z,17.63
2023-01-01T03:15:38.110Z,17.95
2023-01-01T03:16:35.171Z,19.10
2023-01-01T03:17:38.637Z,19.85
2023-01-01T03:18:36.752Z,17.83
2023-01-01T03:19:26.916Z,19.85
2023-01-01T03:20:14.951Z,20.30
2023-01-01T03:21:01.358Z,18.85
2023-01-01T03:21:58.508Z,19.73
2023-01-01T03:23:27.684Z,18.10
2023-01-01T03:24:16.229Z,17.10
2023-01-01T03:25:07.126Z,18.30
2023-01-01T03:25:54.692Z,18.25
2023-01-01T03:26:37.837Z,19.48
2023-01-01T03:27:31.320Z,20.27
2023-01-01T03:28:24.098Z,20.30
2023-01-01T03:29:06.103Z,18.98
2023-01-01T03:29:51.384Z,21.92
2023-01-01T03:30:37.288Z,19.80
2023-01-01T03:31:23.481Z,18.52
2023-01-01T03:32:07.543Z,18.30
2023-01-01T03:33:03.695Z,19.08
2023-01-01T03:33:49.241Z,18.45
2023-01-01T03:34:37.447Z,20.63
2023-01-01T03:35:23.400Z,21.25
2023-01-01T03:36:11.223Z,20.55
2023-01-01T03:36:57.827Z,18.20
2023-01-01T03:37:41.383Z,19.27
2023-01-01T03:38:29.642Z,17.85
2023-01-01T03:39:25.385Z,20.40
2023-01-01T03:40:08.915Z,21.20
2023-01-01T03:40:57.967Z,20.17
2023-01-01T03:41:47.254Z,16.75
2023-01-01T03:42:36.719Z,18.70
2023-01-01T03:43:35.159Z,19.17
2023-01-01T03:44:39.851Z,18.08
2023-01-01T03:45:36.351Z,21.33
2023-01-01T03:46:22.961Z,18.90
2023-01-01T03:47:06.734Z,20.63
2023-01-01T03:47:48.614Z,21.60
2023-01-01T03:48:50.367Z,21.25
2023-01-01T03:49:32.991Z,20.75
2023-01-01T03:50:15.531Z,20.50
2023-01-01T03:51:15.409Z,18.33
2023-01-01T03:52:06.119Z,18.25
2023-01-01T03:53:29.134Z,19.13
2023-01-01T03:54:38.085Z,18.92
2023-01-01T03:55:23.912Z,21.23
2023-01-01T03:56:19.593Z,20.80
2023-01-01T03:57:11.446Z,19.17
2023-01-01T03:58:24.627Z,20.00
2023-01-01T03:59:14.829Z,19.38
2023-01-01T04:00:04.734Z,19.05
2023-01-01T04:01:04.514Z,19.83
2023-01-01T04:01:53.760Z,20.17
2023-01-01T04:02:42.733Z,18.20
2023-01-01T04:03:28.275Z,20.15
2023-01-01T04:04:11.449Z,17.52
2023-01-01T04:04:53.453Z,20.33
2023-01-01T04:05:40.487Z,21.85
2023-01-01T04:06:22.492Z,27.08
2023-01-01T04:07:14.733Z,24.92
2023-01-01T04:08:00.525Z,22.92
2023-01-01T04:08:42.337Z,21.65
2023-01-01T04:09:30.445Z,20.95
2023-01-01T04:10:17.820Z,19.65
2023-01-01T04:11:23.952Z,22.08
2023-01-01T04:12:06.004Z,21.85
2023-01-01T04:12:50.483Z,19.30
2023-01-01T04:13:46.174Z,20.50
2023-01-01T04:14:35.575Z,19.45
2023-01-01T04:15:19.292Z,20.77
2023-01-01T04:16:01.114Z,20.58
2023-01-01T04:16:42.784Z,18.10
2023-01-01T04:17:24.506Z,19.60
2023-01-01T04:18:06.246Z,20.27
2023-01-01T04:18:47.865Z,20.58
2023-01-01T04:19:29.560Z,20.17
2023-01-01T04:20:12.251Z,20.70
2023-01-01T04:20:54.014Z,20.65
2023-01-01T04:21:35.588Z,21.10
2023-01-01T04:22:18.016Z,19.83
2023-01-01T04:23:00.561Z,20.02
2023-01-01T04:23:44.721Z,18.75
2023-01-01T04:24:26.539Z,19.52
2023-01-01T04:25:09.279Z,18.30
2023-01-01T04:25:50.856Z,17.42
2023-01-01T04:26:32.460Z,20.77
2023-01-01T04:27:14.069Z,19.50
2023-01-01T04:27:56.042Z,20.50
2023-01-01T04:28:37.850Z,20.02
2023-01-01T04:29:19.803Z,21.23
2023-01-01T04:30:01.488Z,20.73
2023-01-01T04:31:23.583Z,17.60
2023-01-01T04:32:05.132Z,16.00
2023-01-01T04:32:46.830Z,16.15
2023-01-01T04:33:28.413Z,16.42
2023-01-01T04:34:10.050Z,17.02
2023-01-01T04:34:51.675Z,16.35
2023-01-01T04:35:33.288Z,17.17
2023-01-01T04:36:14.877Z,17.02
2023-01-01T04:36:56.532Z,16.98
2023-01-01T04:37:39.055Z,16.90
2023-01-01T04:38:22.098Z,15.30
2023-01-01T04:39:04.340Z,16.63
2023-01-01T04:39:46.061Z,16.25
2023-01-01T04:40:27.622Z,17.67
2023-01-01T04:41:09.458Z,16.20
2023-01-01T04:41:51.054Z,16.33
2023-01-01T04:42:33.051Z,16.35
2023-01-01T04:43:14.654Z,15.40
2023-01-01T04:43:56.251Z,17.70
2023-01-01T04:44:38.726Z,15.68
2023-01-01T04:45:20.305Z,14.43
2023-01-01T04:46:03.582Z,14.95
2023-01-01T04:46:45.300Z,15.05
2023-01-01T04:47:27.180Z,15.90
2023-01-01T04:48:08.787Z,15.98
2023-01-01T04:48:50.660Z,15.85
2023-01-01T04:49:32.287Z,15.25
2023-01-01T04:50:13.868Z,12.25
2023-01-01T04:51:00.389Z,14.82
2023-01-01T04:51:42.032Z,14.95
2023-01-01T04:52:23.671Z,16.52
2023-01-01T04:53:05.272Z,17.25
2023-01-01T04:53:47.006Z,16.92
2023-01-01T04:54:28.586Z,16.33
2023-01-01T04:55:10.232Z,16.05
2023-01-01T04:55:51.911Z,14.93
2023-01-01T04:56:33.549Z,14.90
2023-01-01T04:57:15.323Z,14.35
2023-01-01T04:57:59.506Z,14.30
2023-01-01T04:58:42.644Z,13.63
2023-01-01T04:59:24.340Z,15.13
2023-01-01T05:00:06.593Z,14.68
2023-01-01T05:00:50.414Z,15.30
2023-01-01T05:01:32.296Z,15.73
2023-01-01T05:02:14.206Z,15.98
2023-01-01T05:02:55.862Z,14.60
2023-01-01T05:03:37.551Z,13.35
2023-01-01T05:04:19.121Z,14.45
2023-01-01T05:05:00.854Z,14.73
2023-01-01T05:05:45.521Z,15.88
2023-01-01T05:06:30.054Z,13.95
2023-01-01T05:07:11.628Z,13.85
2023-01-01T05:07:53.200Z,13.77
2023-01-01T05:08:37.601Z,13.40
2023-01-01T05:09:19.360Z,12.80
2023-01-01T05:10:00.960Z,12.55
2023-01-01T05:10:42.529Z,14.05
2023-01-01T05:11:27.318Z,15.13
2023-01-01T05:12:08.936Z,14.77
2023-01-01T05:12:50.588Z,13.63
2023-01-01T05:13:34.575Z,13.38
2023-01-01T05:14:16.215Z,12.70
2023-01-01T05:14:57.817Z,14.15
2023-01-01T05:15:39.468Z,14.25
2023-01-01T05:16:23.837Z,13.20
2023-01-01T05:17:05.511Z,13.63
2023-01-01T05:17:47.141Z,11.93
2023-01-01T05:18:28.799Z,13.95
2023-01-01T05:19:11.673Z,14.30
2023-01-01T05:19:53.278Z,14.95
2023-01-01T05:20:35.127Z,15.35
2023-01-01T05:21:19.525Z,16.88
2023-01-01T05:22:06.893Z,15.07
2023-01-01T05:22:51.949Z,13.90
2023-01-01T05:23:33.986Z,13.45
2023-01-01T05:24:15.831Z,14.68
2023-01-01T05:24:57.504Z,14.07
2023-01-01T05:25:39.936Z,16.40
2023-01-01T05:26:24.482Z,15.95
2023-01-01T05:27:06.112Z,14.63
2023-01-01T05:27:47.743Z,15.30
2023-01-01T05:28:29.442Z,14.07
2023-01-01T05:29:16.646Z,15.10
2023-01-01T05:29:58.831Z,14.95
2023-01-01T05:30:40.826Z,14.13
2023-01-01T05:31:25.344Z,14.68
2023-01-01T05:32:47.873Z,12.75
2023-01-01T05:33:29.479Z,12.38
2023-01-01T05:34:11.384Z,14.15
2023-01-01T05:34:53.389Z,13.43
2023-01-01T05:35:35.034Z,13.68
2023-01-01T05:36:33.921Z,13.15
2023-01-01T05:37:15.549Z,11.70
2023-01-01T05:37:57.144Z,11.65
2023-01-01T05:38:38.773Z,11.82
2023-01-01T05:39:20.397Z,12.07
2023-01-01T05:40:02.012Z,11.73
2023-01-01T05:40:43.580Z,11.63
2023-01-01T05:41:25.725Z,13.23
2023-01-01T05:42:07.296Z,12.73
2023-01-01T05:42:49.134Z,13.48
2023-01-01T05:43:30.761Z,13.93
2023-01-01T05:44:12.453Z,13.93
2023-01-01T05:44:54.030Z,14.00
2023-01-01T05:45:35.700Z,13.00
2023-01-01T05:46:20.559Z,13.73
2023-01-01T05:47:02.257Z,13.43
2023-01-01T05:47:43.889Z,13.18
2023-01-01T05:48:25.513Z,12.23
2023-01-01T05:49:11.467Z,11.75
2023-01-01T05:49:53.086Z,10.88
2023-01-01T05:50:34.735Z,12.00
2023-01-01T05:51:20.124Z,12.13
2023-01-01T05:52:01.915Z,12.45
2023-01-01T05:52:43.552Z,12.50
2023-01-01T05:53:25.155Z,12.35
2023-01-01T05:54:06.788Z,12.40
2023-01-01T05:54:48.448Z,12.23
2023-01-01T05:55:31.073Z,10.70
2023-01-01T05:56:14.039Z,11.57
2023-01-01T05:56:58.171Z,12.63
2023-01-01T05:57:39.788Z,14.07
2023-01-01T05:58:21.429Z,12.95
2023-01-01T05:59:03.160Z,13.60
2023-01-01T05:59:44.769Z,11.02
2023-01-01T06:00:28.128Z,11.60
2023-01-01T06:01:16.356Z,12.75
2023-01-01T06:01:58.115Z,11.82
2023-01-01T06:02:39.897Z,12.48
2023-01-01T06:03:22.272Z,11.63
2023-01-01T06:04:05.049Z,11.40
2023-01-01T06:04:46.857Z,11.30
2023-01-01T06:05:28.481Z,11.27
2023-01-01T06:06:12.991Z,11.45
2023-01-01T06:06:54.617Z,11.88
2023-01-01T06:07:36.471Z,12.48
2023-01-01T06:08:18.143Z,11.55
2023-01-01T06:09:04.002Z,11.07
2023-01-01T06:09:45.609Z,11.13
2023-01-01T06:10:27.229Z,11.32
2023-01-01T06:11:12.141Z,10.25
2023-01-01T06:11:53.835Z,11.02
2023-01-01T06:12:35.433Z,10.50
2023-01-01T06:13:17.021Z,11.00
2023-01-01T06:14:00.405Z,10.90
2023-01-01T06:14:41.992Z,11.52
2023-01-01T06:15:23.539Z,10.73
2023-01-01T06:16:05.728Z,11.20
2023-01-01T06:16:47.375Z,11.90
2023-01-01T06:17:29.024Z,12.27
2023-01-01T06:18:10.684Z,12.90
2023-01-01T06:18:52.457Z,12.10
2023-01-01T06:19:34.101Z,12.57
2023-01-01T06:20:15.872Z,10.80
2023-01-01T06:21:17.165Z,11.95
2023-01-01T06:21:58.802Z,9.80
2023-01-01T06:22:40.408Z,10.10
2023-01-01T06:23:22.100Z,10.38
2023-01-01T06:24:04.026Z,9.93
2023-01-01T06:24:45.683Z,9.90
2023-01-01T06:25:27.293Z,10.65
2023-01-01T06:26:11.414Z,11.07
2023-01-01T06:26:53.062Z,9.40
2023-01-01T06:27:36.260Z,10.65
2023-01-01T06:28:17.857Z,10.50
2023-01-01T06:29:03.470Z,9.90
2023-01-01T06:29:45.048Z,11.32
2023-01-01T06:30:27.050Z,12.18
2023-01-01T06:31:11.315Z,14.00
2023-01-01T06:31:53.025Z,13.48
2023-01-01T06:32:34.631Z,12.80
2023-01-01T06:33:16.178Z,11.82
2023-01-01T06:33:58.051Z,11.00
2023-01-01T06:34:39.639Z,11.73
2023-01-01T06:35:21.220Z,13.23
2023-01-01T06:36:05.943Z,12.27
2023-01-01T06:36:47.509Z,10.60
2023-01-01T06:37:29.217Z,10.80
2023-01-01T06:38:10.831Z,10.80
2023-01-01T06:38:55.575Z,11.43
2023-01-01T06:39:37.246Z,10.18
2023-01-01T06:40:18.856Z,10.70
2023-01-01T06:41:10.562Z,10.98
2023-01-01T06:41:52.166Z,10.95
2023-01-01T06:42:34.251Z,10.20
2023-01-01T06:43:15.895Z,10.88
2023-01-01T06:43:59.386Z,10.45
2023-01-01T06:44:41.078Z,10.05
2023-01-01T06:45:22.685Z,9.07
2023-01-01T06:46:07.503Z,9.45
2023-01-01T06:46:49.120Z,9.43
2023-01-01T06:47:34.519Z,10.13
2023-01-01T06:48:16.180Z,9.43
2023-01-01T06:49:04.627Z,9.98
2023-01-01T06:49:46.218Z,8.80
2023-01-01T06:50:27.793Z,10.38
2023-01-01T06:51:12.080Z,10.65
2023-01-01T06:51:53.791Z,8.57
2023-01-01T06:52:36.142Z,9.60
2023-01-01T06:53:17.775Z,9.65
2023-01-01T06:54:01.183Z,9.50
2023-01-01T06:54:42.764Z,9.23
2023-01-01T06:55:24.373Z,10.07
2023-01-01T06:56:06.857Z,9.45
2023-01-01T06:56:48.528Z,10.00
2023-01-01T06:57:30.349Z,10.13
2023-01-01T06:58:11.924Z,9.52
2023-01-01T06:58:53.627Z,9.57
2023-01-01T06:59:35.202Z,9.35
2023-01-01T07:00:16.854Z,10.25
2023-01-01T07:01:16.462Z,9.07
2023-01-01T07:01:58.310Z,9.02
2023-01-01T07:02:40.309Z,9.00
2023-01-01T07:03:22.068Z,10.18
2023-01-01T07:04:08.104Z,8.88
2023-01-01T07:04:50.247Z,9.50
2023-01-01T07:05:31.914Z,9.35
2023-01-01T07:06:13.538Z,9.40
2023-01-01T07:06:55.136Z,9.70
2023-01-01T07:07:36.925Z,9.80
2023-01-01T07:08:18.489Z,8.90
2023-01-01T07:09:00.976Z,9.43
2023-01-01T07:09:42.818Z,9.30
2023-01-01T07:10:24.437Z,10.00
2023-01-01T07:11:06.419Z,8.95
2023-01-01T07:11:48.028Z,9.93
2023-01-01T07:12:29.661Z,9.93
2023-01-01T07:13:11.280Z,10.00
2023-01-01T07:13:54.442Z,11.02
2023-01-01T07:14:36.185Z,12.45
2023-01-01T07:15:17.827Z,12.05
2023-01-01T07:15:59.883Z,10.43
2023-01-01T07:16:41.608Z,10.93
2023-01-01T07:17:23.200Z,10.05
2023-01-01T07:18:04.914Z,10.70
2023-01-01T07:18:48.981Z,12.55
2023-01-01T07:19:30.669Z,11.32
2023-01-01T07:20:12.284Z,11.82
2023-01-01T07:20:55.436Z,13.20
2023-01-01T07:21:53.420Z,12.95
2023-01-01T07:22:38.088Z,12.93
2023-01-01T07:23:22.567Z,12.38
2023-01-01T07:24:05.742Z,13.07
2023-01-01T07:24:48.323Z,13.40
2023-01-01T07:25:30.098Z,11.65
2023-01-01T07:26:11.723Z,10.95
2023-01-01T07:26:53.336Z,10.98
2023-01-01T07:27:34.953Z,10.80
2023-01-01T07:28:16.612Z,10.45
2023-01-01T07:29:06.300Z,10.90
2023-01-01T07:29:48.838Z,11.20
2023-01-01T07:30:31.148Z,11.50
2023-01-01T07:31:12.926Z,11.52
2023-01-01T07:31:54.620Z,11.38
2023-01-01T07:32:36.281Z,11.77
2023-01-01T07:33:21.011Z,12.63
2023-01-01T07:34:02.723Z,11.80
2023-01-01T07:34:48.938Z,11.80
2023-01-01T07:35:32.357Z,10.98
2023-01-01T07:36:14.158Z,9.75
2023-01-01T07:36:56.550Z,9.27
2023-01-01T07:37:38.253Z,9.38
2023-01-01T07:38:19.915Z,9.23
2023-01-01T07:39:01.577Z,9.63
2023-01-01T07:39:43.170Z,10.57
2023-01-01T07:40:24.778Z,10.80
2023-01-01T07:41:06.504Z,10.80
2023-01-01T07:41:48.103Z,11.80
2023-01-01T07:42:29.797Z,11.00
2023-01-01T07:43:14.147Z,11.77
2023-01-01T07:43:55.898Z,11.63
2023-01-01T07:44:37.542Z,10.98
2023-01-01T07:45:19.169Z,11.68
2023-01-01T07:46:01.002Z,10.80
2023-01-01T07:46:42.752Z,10.13
2023-01-01T07:47:25.996Z,10.25
2023-01-01T07:48:13.554Z,11.27
2023-01-01T07:48:57.059Z,11.60
2023-01-01T07:49:38.683Z,11.38
2023-01-01T07:50:21.091Z,11.40
2023-01-01T07:51:02.759Z,10.93
2023-01-01T07:51:44.553Z,10.52
2023-01-01T07:52:26.140Z,10.90
2023-01-01T07:53:09.375Z,11.10
2023-01-01T07:53:53.812Z,10.68
2023-01-01T07:54:35.393Z,11.25
2023-01-01T07:55:21.023Z,10.85
2023-01-01T07:56:02.703Z,10.35
2023-01-01T07:56:44.331Z,11.30
2023-01-01T07:57:25.933Z,12.30
2023-01-01T07:58:07.720Z,11.82
2023-01-01T07:58:49.373Z,11.85
2023-01-01T07:59:31.182Z,12.18
2023-01-01T08:00:15.951Z,11.68
2023-01-01T08:00:58.313Z,10.75
2023-01-01T08:01:40.114Z,9.77
2023-01-01T08:02:21.960Z,10.63
2023-01-01T08:03:04.192Z,11.55
2023-01-01T08:03:51.137Z,11.63
2023-01-01T08:04:32.788Z,14.07
2023-01-01T08:05:14.484Z,12.75
2023-01-01T08:05:56.115Z,13.35
2023-01-01T08:06:37.780Z,12.20
2023-01-01T08:07:19.374Z,10.75
2023-01-01T08:08:00.985Z,11.15
2023-01-01T08:08:42.629Z,10.75
2023-01-01T08:09:24.296Z,11.18
2023-01-01T08:10:07.176Z,12.27
2023-01-01T08:10:48.819Z,12.60
2023-01-01T08:11:30.483Z,12.27
2023-01-01T08:12:12.136Z,11.93
2023-01-01T08:13:00.128Z,12.45
2023-01-01T08:13:41.773Z,11.88
2023-01-01T08:14:23.504Z,11.80
2023-01-01T08:15:05.676Z,11.65
2023-01-01T08:15:47.390Z,11.20
2023-01-01T08:16:29.091Z,10.40
2023-01-01T08:17:10.766Z,11.38
2023-01-01T08:17:59.301Z,10.82
2023-01-01T08:18:40.983Z,11.02
2023-01-01T08:19:23.442Z,10.82
2023-01-01T08:20:05.836Z,11.15
2023-01-01T08:20:47.506Z,10.63
2023-01-01T08:21:29.645Z,11.85
2023-01-01T08:22:11.244Z,12.85
2023-01-01T08:22:53.555Z,12.35
2023-01-01T08:23:35.289Z,13.48
2023-01-01T08:24:16.861Z,13.68
2023-01-01T08:24:58.434Z,13.20
2023-01-01T08:25:40.060Z,14.43
2023-01-01T08:26:33.578Z,14.20
2023-01-01T08:27:16.553Z,13.80
2023-01-01T08:27:58.186Z,13.27
2023-01-01T08:28:39.801Z,13.10
2023-01-01T08:29:21.698Z,12.52
2023-01-01T08:30:04.031Z,11.88
2023-01-01T08:30:45.696Z,13.63
2023-01-01T08:31:27.398Z,13.68
2023-01-01T08:32:09.177Z,13.98
2023-01-01T08:32:50.912Z,14.55
2023-01-01T08:33:32.484Z,13.43
2023-01-01T08:34:14.069Z,12.35
2023-01-01T08:34:55.734Z,13.32
2023-01-01T08:35:41.663Z,13.68
2023-01-01T08:36:23.414Z,13.75
2023-01-01T08:37:05.104Z,14.55
2023-01-01T08:37:46.896Z,14.38
2023-01-01T08:38:28.460Z,12.95
2023-01-01T08:39:10.161Z,16.30
2023-01-01T08:39:52.658Z,15.60
2023-01-01T08:40:34.348Z,14.32
2023-01-01T08:41:16.019Z,13.25
2023-01-01T08:41:57.690Z,13.93
2023-01-01T08:42:39.793Z,13.23
2023-01-01T08:43:21.470Z,14.00
2023-01-01T08:44:04.741Z,13.98
2023-01-01T08:44:47.091Z,12.30
2023-01-01T08:45:28.719Z,12.32
2023-01-01T08:46:10.389Z,13.63
2023-01-01T08:46:55.156Z,13.98
2023-01-01T08:47:36.812Z,15.48
2023-01-01T08:48:18.446Z,15.43
2023-01-01T08:49:00.112Z,14.02
2023-01-01T08:49:44.509Z,13.18
2023-01-01T08:50:26.431Z,14.32
2023-01-01T08:51:10.331Z,15.57
2023-01-01T08:51:51.950Z,14.85
2023-01-01T08:52:33.629Z,13.70
2023-01-01T08:53:15.259Z,15.30
2023-01-01T08:53:56.855Z,16.83
2023-01-01T08:54:38.474Z,19.55
2023-01-01T08:55:20.193Z,19.42
2023-01-01T08:56:07.649Z,16.95
2023-01-01T08:56:49.213Z,17.38
2023-01-01T08:57:31.594Z,15.88
2023-01-01T08:58:13.272Z,19.02
2023-01-01T08:58:57.452Z,19.30
2023-01-01T08:59:43.472Z,20.60
2023-01-01T09:00:25.151Z,20.90
2023-01-01T09:01:07.931Z,19.83
2023-01-01T09:01:49.759Z,20.60
2023-01-01T09:02:31.888Z,20.52
2023-01-01T09:03:13.670Z,18.48
2023-01-01T09:03:55.297Z,19.27
2023-01-01T09:04:36.923Z,19.65
2023-01-01T09:05:18.567Z,20.52
2023-01-01T09:06:00.372Z,18.40
2023-01-01T09:06:42.012Z,17.75
2023-01-01T09:07:24.039Z,18.67
2023-01-01T09:08:05.674Z,17.25
2023-01-01T09:08:47.472Z,16.77
2023-01-01T09:09:31.684Z,17.20
2023-01-01T09:10:13.558Z,17.52
2023-01-01T09:11:01.896Z,17.83
2023-01-01T09:11:55.599Z,18.65
2023-01-01T09:12:37.212Z,18.67
2023-01-01T09:13:21.392Z,18.25
2023-01-01T09:14:03.299Z,18.88
2023-01-01T09:14:47.887Z,16.90
2023-01-01T09:15:29.532Z,18.05
2023-01-01T09:16:11.196Z,17.48
2023-01-01T09:16:52.943Z,16.95
2023-01-01T09:17:34.605Z,17.13
2023-01-01T09:18:16.193Z,16.33
2023-01-01T09:18:57.805Z,16.05
2023-01-01T09:19:39.460Z,15.75
2023-01-01T09:20:21.171Z,16.02
2023-01-01T09:21:02.835Z,15.32
2023-01-01T09:21:44.446Z,14.98
2023-01-01T09:22:26.047Z,14.20
2023-01-01T09:23:08.962Z,15.07
2023-01-01T09:23:50.630Z,16.85
2023-01-01T09:24:32.211Z,16.52
2023-01-01T09:25:13.967Z,17.25
2023-01-01T09:25:56.186Z,15.48
2023-01-01T09:26:37.833Z,14.38
2023-01-01T09:27:19.459Z,13.73
2023-01-01T09:28:03.507Z,14.23
2023-01-01T09:28:45.150Z,13.32
2023-01-01T09:29:26.785Z,13.30
2023-01-01T09:30:09.214Z,12.60
2023-01-01T09:30:50.847Z,13.05
2023-01-01T09:31:32.720Z,11.57
2023-01-01T09:32:14.382Z,12.05
2023-01-01T09:32:56.027Z,12.85
2023-01-01T09:33:37.799Z,11.90
2023-01-01T09:34:19.654Z,11.85
2023-01-01T09:35:01.336Z,11.75
2023-01-01T09:35:44.409Z,10.85
2023-01-01T09:36:33.481Z,11.32
2023-01-01T09:37:15.157Z,11.15
2023-01-01T09:37:57.495Z,11.88